VIAG/AGR METAR and TAF weather

Enter ICAO airport designator
Station Type Date Time Source
VIAG METAR 2021/05/07 02:30 UTC NOAA

VIAG 070230Z 34007KT 6000 FEW030 FEW035TCU SCT100 26/16 Q1008 NOSIG


Station Type Date Time Source
VIAG Decoded METAR 2021/05/07 02:30 UTC NOAA

Agra, India (VIAG) 27-09N 077-58E 169M
May 06, 2021 - 10:30 PM EDT / 2021.05.07 0230 UTC
Wind: from the NNW (340 degrees) at 8 MPH (7 KT):0
Visibility: 3 mile(s):0
Sky conditions: partly cloudy
Weather: Towering cumulus clouds observed
Temperature: 78 F (26 C)
Dew Point: 60 F (16 C)
Relative Humidity: 54%
Pressure (altimeter): 29.77 in. Hg (1008 hPa)
ob: VIAG 070230Z 34007KT 6000 FEW030 FEW035TCU SCT100 26/16 Q1008 NOSIG
cycle: 2

Station Type Date Time Source
VIAG TAF 2021/05/14 00:30 UTC NOAA

TAF VIAG 132130Z 1400/1412 11005KT 6000 SCT030 SCT090 SCT250
BECMG 1407/1412 29010KT 6000 SCT030 FEW040TCU
TEMPO 1410/1412 29015G25KT 6000 TSRA SCT030 FEW040TCUCB BKN090

Example: see airport list